Terminal Aerodrome Forecast
Issued by NWS

Home | Current Version | Previous Version | Text Only | Print | Product List | Glossary On
Versions: 1 2 3 4 5 6 7 8 9 10 11 12 13 14 15 16 17 18 19 20 21 22 23 24
000
FTUS46 KLOX 261721
TAFSBA
TAF
KSBA 261721Z 2618/2718 14007KT P6SM SCT030
     FM262000 23010KT P6SM SKC
     FM262200 22012G20KT P6SM SKC
     FM270100 28008KT P6SM SKC WS015/35025KT
     FM270600 VRB03KT P6SM SKC
     FM271500 14006KT P6SM BKN012=

USA.gov is the U.S. government's official web portal to all federal, state and local government web resources and services.